Time;durP1;ratioP1;P1;durP2;ratioP2;P2;SDS_P1;SDS_P2;PMS_P1;PMS_P2;Temp;Humidity;BMP_temperature;BMP_pressure;BME280_temperature;BME280_humidity;BME280_pressure;Samples;Min_cycle;Max_cycle;Signal;HPM_P1;HPM_P2
2023/09/11 03:08:39;1035249.00;3.45;1795.00;0.00;0.00;0.62;;;;;22.20;1.00;;;;;;1568901;40;3442;-88
2023/09/11 03:28:32;1121881.00;3.74;1949.60;42403.00;0.14;74.05;;;;;22.10;1.00;;;;;;2282948;61;1240;-91
2023/09/11 03:33:29;1138235.00;3.79;1978.94;0.00;0.00;0.62;;;;;22.10;1.00;;;;;;2278810;61;1946;-91
2023/09/11 03:38:26;843334.00;2.81;1456.81;0.00;0.00;0.62;;;;;22.10;1.00;;;;;;2282683;61;1288;-91
2023/09/11 03:40:52;93643.00;0.31;162.60;0.00;0.00;0.62;;;;;22.10;1.00;;;;;;2281147;61;1646;-90
2023/09/11 05:33:09;1351068.00;4.50;2365.88;0.00;0.00;0.62;;;;;23.00;1.00;;;;;;2525108;40;3449;31
2023/09/11 06:58:33;1342633.00;4.48;2350.34;69788.00;0.23;121.39;;;;;32.80;1.00;;;;;;2279229;61;1342;-89
2023/09/11 08:31:13;1375371.00;4.58;2410.72;23022.00;0.08;40.50;;;;;33.40;1.00;;;;;;1632627;55;3623;-92
2023/09/11 08:33:40;21016.00;0.07;37.03;0.00;0.00;0.62;;;;;33.50;1.00;;;;;;2284427;60;1981;-90
2023/09/11 08:36:08;110249.00;0.37;191.26;0.00;0.00;0.62;;;;;32.90;1.00;;;;;;2284450;60;1046;-90
2023/09/11 08:41:07;508092.00;1.69;875.76;0.00;0.00;0.62;;;;;32.50;1.00;;;;;;2282028;60;1403;-89
2023/09/11 08:43:33;0.00;0.00;0.62;0.00;0.00;0.62;;;;;32.70;1.00;;;;;;2280497;60;1135;-90
2023/09/11 08:46:02;109922.00;0.37;190.70;0.00;0.00;0.62;;;;;32.30;1.00;;;;;;2280647;60;979;-88
2023/09/11 08:48:33;10168.00;0.03;18.24;0.00;0.00;0.62;;;;;32.40;1.00;;;;;;2280066;60;1574;-89
2023/09/11 08:51:06;0.00;0.00;0.62;0.00;0.00;0.62;;;;;32.20;1.00;;;;;;2276495;61;1118;-90
2023/09/11 08:53:36;513847.00;1.71;885.67;140710.00;0.47;243.79;;;;;31.40;1.00;;;;;;2276533;61;1923;-88
2023/09/11 08:56:05;15815.00;0.05;28.02;0.00;0.00;0.62;;;;;31.20;1.00;;;;;;2276570;61;2238;-89
2023/09/11 08:58:34;86216.00;0.29;149.77;0.00;0.00;0.62;;;;;31.30;1.00;;;;;;2276584;61;1350;-88
2023/09/11 09:01:02;0.00;0.00;0.62;0.00;0.00;0.62;;;;;31.30;1.00;;;;;;2276527;61;1075;-90
2023/09/11 09:03:31;147279.00;0.49;255.12;0.00;0.00;0.62;;;;;31.40;1.00;;;;;;2276445;61;1613;-90
2023/09/11 09:05:58;0.00;0.00;0.62;0.00;0.00;0.62;;;;;31.70;1.00;;;;;;2276500;61;1007;-89
2023/09/11 09:08:26;0.00;0.00;0.62;0.00;0.00;0.62;;;;;31.20;1.00;;;;;;2276547;61;1394;-89
2023/09/11 09:10:53;62458.00;0.21;108.73;0.00;0.00;0.62;;;;;31.10;1.00;;;;;;2276408;61;1865;-90
2023/09/11 09:13:20;137258.00;0.46;237.84;0.00;0.00;0.62;;;;;31.20;1.00;;;;;;2276371;61;2008;-89
2023/09/11 09:15:47;58422.00;0.19;101.75;0.00;0.00;0.62;;;;;31.70;1.00;;;;;;2276469;61;1049;-90
2023/09/11 09:18:14;388222.00;1.29;669.56;104725.00;0.35;181.73;;;;;32.00;1.00;;;;;;2276538;61;1394;-90
2023/09/11 09:20:42;149762.00;0.50;259.40;0.00;0.00;0.62;;;;;32.10;1.00;;;;;;2276413;61;1711;-89
2023/09/11 09:23:09;86877.00;0.29;150.91;0.00;0.00;0.62;;;;;32.10;1.00;;;;;;2276384;61;1087;-90
2023/09/11 09:25:36;89028.00;0.30;154.63;0.00;0.00;0.62;;;;;31.70;1.00;;;;;;2276465;61;1749;-89
2023/09/11 09:28:02;79985.00;0.27;139.01;0.00;0.00;0.62;;;;;31.60;1.00;;;;;;2276479;61;1601;-89
2023/09/11 09:30:31;81591.00;0.27;141.79;0.00;0.00;0.62;;;;;31.80;1.00;;;;;;2276450;61;1336;-90
2023/09/11 09:32:58;315037.00;1.05;543.77;54166.00;0.18;94.39;;;;;31.60;1.00;;;;;;2276432;61;972;-89
2023/09/11 09:35:30;107094.00;0.36;185.82;0.00;0.00;0.62;;;;;31.70;1.00;;;;;;2276412;61;2009;-90
2023/09/11 09:37:59;114497.00;0.38;198.59;0.00;0.00;0.62;;;;;31.90;1.00;;;;;;2275810;61;1626;-90
2023/09/11 09:40:34;108562.00;0.36;188.35;0.00;0.00;0.62;;;;;32.00;1.00;;;;;;2276326;61;2036;-89
2023/09/11 09:43:03;191977.00;0.64;332.11;18746.00;0.06;33.10;;;;;32.10;1.00;;;;;;2276474;61;1016;-88
2023/09/11 09:45:33;200221.00;0.67;346.30;0.00;0.00;0.62;;;;;32.20;1.00;;;;;;2276418;61;1048;-88
2023/09/11 09:48:10;50624.00;0.17;88.27;0.00;0.00;0.62;;;;;32.10;1.00;;;;;;2276362;61;1734;-88
2023/09/11 09:50:58;45178.00;0.15;78.85;0.00;0.00;0.62;;;;;32.20;1.00;;;;;;2276383;61;1462;-89
2023/09/11 09:53:29;6200.00;0.02;11.37;0.00;0.00;0.62;;;;;32.00;1.00;;;;;;2276269;61;1920;-87
2023/09/11 09:55:57;23750.00;0.08;41.76;0.00;0.00;0.62;;;;;32.10;1.00;;;;;;2276410;61;1087;-90
2023/09/11 09:58:28;265098.00;0.88;457.91;33871.00;0.11;59.28;;;;;32.10;1.00;;;;;;2276366;61;1601;-90
2023/09/11 10:01:03;123070.00;0.41;213.38;50677.00;0.17;88.36;;;;;32.30;1.00;;;;;;2276333;61;1003;-87
2023/09/11 10:03:39;301095.00;1.00;519.80;134263.00;0.45;232.68;;;;;32.10;1.00;;;;;;2276270;61;959;-88
2023/09/11 10:06:07;0.00;0.00;0.62;0.00;0.00;0.62;;;;;31.60;1.00;;;;;;2276304;61;1715;-89
2023/09/11 10:08:36;63549.00;0.21;110.61;0.00;0.00;0.62;;;;;31.50;1.00;;;;;;2276313;61;1368;-90
2023/09/11 10:11:03;84027.00;0.28;145.99;0.00;0.00;0.62;;;;;31.90;1.00;;;;;;2276264;61;941;-89
2023/09/11 10:13:32;73957.00;0.25;128.60;0.00;0.00;0.62;;;;;32.20;1.00;;;;;;2276254;61;1923;-90
2023/09/11 10:15:59;0.00;0.00;0.62;0.00;0.00;0.62;;;;;32.10;1.00;;;;;;2276356;61;1787;-87
2023/09/11 10:18:27;135595.00;0.45;234.98;0.00;0.00;0.62;;;;;32.40;1.00;;;;;;2276198;61;2079;-88
2023/09/11 10:20:54;98092.00;0.33;170.28;0.00;0.00;0.62;;;;;32.40;1.00;;;;;;2276233;61;1408;-90
2023/09/11 10:23:21;274548.00;0.92;474.16;0.00;0.00;0.62;;;;;32.50;1.00;;;;;;2276228;61;1415;-87
2023/09/11 10:25:54;114434.00;0.38;198.48;0.00;0.00;0.62;;;;;32.30;1.00;;;;;;2276269;61;1557;-88
2023/09/11 10:28:29;175346.00;0.58;303.47;0.00;0.00;0.62;;;;;32.60;1.00;;;;;;2276196;61;1423;-89
2023/09/11 10:31:05;124903.00;0.42;216.54;0.00;0.00;0.62;;;;;32.90;1.00;;;;;;2276219;61;1710;-89
2023/09/11 10:33:34;319804.00;1.07;551.96;71909.00;0.24;125.06;;;;;33.00;1.00;;;;;;2276161;61;1947;-90
2023/09/11 10:36:05;63356.00;0.21;110.28;0.00;0.00;0.62;;;;;32.70;1.00;;;;;;2276269;61;928;-90
2023/09/11 10:38:35;78968.00;0.26;137.25;0.00;0.00;0.62;;;;;32.50;1.00;;;;;;2276189;61;1321;-89
2023/09/11 10:41:05;266992.00;0.89;461.17;60420.00;0.20;105.20;;;;;32.20;1.00;;;;;;2276199;61;1162;-90
2023/09/11 10:43:33;86276.00;0.29;149.88;19928.00;0.07;35.15;;;;;32.30;1.00;;;;;;2276175;61;1536;-89
2023/09/11 10:46:15;0.00;0.00;0.62;0.00;0.00;0.62;;;;;32.60;1.00;;;;;;2276267;61;1028;-90
2023/09/11 10:48:42;12335.00;0.04;21.99;0.00;0.00;0.62;;;;;32.90;1.00;;;;;;2276536;61;1446;-88
2023/09/11 10:51:09;236163.00;0.79;408.15;93393.00;0.31;162.17;;;;;33.10;1.00;;;;;;2276890;61;2255;-88
2023/09/11 10:53:36;13685.00;0.05;24.33;0.00;0.00;0.62;;;;;33.00;1.00;;;;;;2276953;61;1058;-89
2023/09/11 10:56:05;182831.00;0.61;316.36;44989.00;0.15;78.52;;;;;32.60;1.00;;;;;;2276866;61;1134;-89
2023/09/11 10:58:32;98069.00;0.33;170.24;32388.00;0.11;56.72;;;;;32.30;1.00;;;;;;2276741;61;1626;-89
2023/09/11 11:00:59;60669.00;0.20;105.63;0.00;0.00;0.62;;;;;32.30;1.00;;;;;;2276862;61;1537;-88
2023/09/11 11:03:27;208656.00;0.70;360.82;0.00;0.00;0.62;;;;;32.70;1.00;;;;;;2276853;61;1053;-87
2023/09/11 11:05:54;0.00;0.00;0.62;0.00;0.00;0.62;;;;;33.00;1.00;;;;;;2276812;61;1026;-89
2023/09/11 11:08:21;128009.00;0.43;221.90;0.00;0.00;0.62;;;;;33.00;1.00;;;;;;2286632;39;3600;-88
2023/09/11 11:10:51;810895.00;2.70;1400.13;0.00;0.00;0.62;;;;;32.30;1.00;;;;;;2282877;61;1417;-89
2023/09/11 11:15:49;460879.00;1.54;794.50;0.00;0.00;0.62;;;;;31.70;1.00;;;;;;2278146;61;2005;-89
2023/09/11 11:18:26;521954.00;1.74;899.63;0.00;0.00;0.62;;;;;31.90;1.00;;;;;;2298944;56;3734;-88
2023/09/11 11:23:26;620605.00;2.07;1069.81;0.00;0.00;0.62;;;;;32.30;1.00;;;;;;2282344;55;3659;-89
2023/09/11 11:25:53;91160.00;0.30;158.31;0.00;0.00;0.62;;;;;32.50;1.00;;;;;;2284925;60;1052;-88
2023/09/11 11:28:24;143888.00;0.48;249.27;0.00;0.00;0.62;;;;;32.30;1.00;;;;;;2284827;60;1387;-88
2023/09/11 11:30:54;178482.00;0.59;308.88;69087.00;0.23;120.18;;;;;32.30;1.00;;;;;;2280873;61;932;-89
2023/09/11 11:33:24;157080.00;0.52;272.01;9360.00;0.03;16.84;;;;;31.80;1.00;;;;;;2280685;61;1050;-89
2023/09/11 11:35:53;62118.00;0.21;108.14;0.00;0.00;0.62;;;;;31.90;1.00;;;;;;2280807;61;1997;-88
2023/09/11 11:38:21;193538.00;0.65;334.80;0.00;0.00;0.62;;;;;32.30;1.00;;;;;;2280700;61;1716;-90
2023/09/11 11:40:48;78729.00;0.26;136.84;0.00;0.00;0.62;;;;;32.50;1.00;;;;;;2280712;61;976;-88
2023/09/11 11:43:17;52798.00;0.18;92.02;0.00;0.00;0.62;;;;;32.40;1.00;;;;;;2280661;61;1031;-88
2023/09/11 11:45:47;34938.00;0.12;61.13;0.00;0.00;0.62;;;;;32.40;1.00;;;;;;2280840;61;1078;-91
2023/09/11 11:48:16;32727.00;0.11;57.30;0.00;0.00;0.62;;;;;32.90;1.00;;;;;;2280813;61;1587;-89
2023/09/11 11:50:44;283783.00;0.95;490.04;110956.00;0.37;192.48;;;;;33.20;1.00;;;;;;2280740;61;1202;-88
2023/09/11 11:53:15;59748.00;0.20;104.04;0.00;0.00;0.62;;;;;33.60;1.00;;;;;;2280723;61;1114;-90
2023/09/11 11:55:43;169007.00;0.56;292.56;0.00;0.00;0.62;;;;;33.60;1.00;;;;;;2280774;61;1978;-89
2023/09/11 11:58:12;322423.00;1.07;556.46;33518.00;0.11;58.67;;;;;33.60;1.00;;;;;;2280684;61;1011;-87
2023/09/11 12:00:39;118658.00;0.40;205.77;0.00;0.00;0.62;;;;;32.90;1.00;;;;;;2280455;61;1611;-89
2023/09/11 12:03:08;128744.00;0.43;223.16;0.00;0.00;0.62;;;;;32.70;1.00;;;;;;2280620;61;1672;-90
2023/09/11 12:05:37;168346.00;0.56;291.42;0.00;0.00;0.62;;;;;32.30;1.00;;;;;;2280631;61;1915;-90
2023/09/11 12:08:04;135468.00;0.45;234.76;0.00;0.00;0.62;;;;;32.10;1.00;;;;;;2280766;61;997;-90
2023/09/11 12:10:32;217417.00;0.72;375.90;45048.00;0.15;78.62;;;;;32.50;1.00;;;;;;2280696;61;1288;-89
2023/09/11 12:15:31;578884.00;1.93;997.77;0.00;0.00;0.62;;;;;33.20;1.00;;;;;;2293679;39;3539;-87
2023/09/11 12:17:59;119207.00;0.40;206.71;0.00;0.00;0.62;;;;;33.30;1.00;;;;;;2280621;60;1085;-88
2023/09/11 12:20:26;0.00;0.00;0.62;0.00;0.00;0.62;;;;;33.20;1.00;;;;;;2276923;61;1321;-89
2023/09/11 12:22:54;101720.00;0.34;176.54;0.00;0.00;0.62;;;;;33.50;1.00;;;;;;2276573;61;938;-88
2023/09/11 12:25:21;126575.00;0.42;219.42;0.00;0.00;0.62;;;;;33.40;1.00;;;;;;2276708;61;936;-89
2023/09/11 12:27:48;176751.00;0.59;305.89;0.00;0.00;0.62;;;;;33.00;1.00;;;;;;2276582;61;1730;-88
2023/09/11 12:30:16;81810.00;0.27;142.16;0.00;0.00;0.62;;;;;32.70;1.00;;;;;;2276561;61;1389;-89
2023/09/11 12:32:43;0.00;0.00;0.62;0.00;0.00;0.62;;;;;32.70;1.00;;;;;;2276567;61;1188;-89
2023/09/11 12:35:10;1402.00;0.00;3.05;0.00;0.00;0.62;;;;;32.60;1.00;;;;;;2276461;61;2002;-88
2023/09/11 12:37:39;123225.00;0.41;213.65;0.00;0.00;0.62;;;;;32.50;1.00;;;;;;2276533;61;1609;-89
2023/09/11 12:40:10;257589.00;0.86;445.00;0.00;0.00;0.62;;;;;32.40;1.00;;;;;;2276562;61;1794;-88
2023/09/11 12:42:39;201088.00;0.67;347.80;8410.00;0.03;15.19;;;;;32.40;1.00;;;;;;2276396;61;2207;-87
2023/09/11 12:45:08;177477.00;0.59;307.14;8041.00;0.03;14.56;;;;;32.70;1.00;;;;;;2276514;61;1597;-89
2023/09/11 12:47:36;221051.00;0.74;382.15;0.00;0.00;0.62;;;;;33.10;1.00;;;;;;2276345;61;952;-89
2023/09/11 12:50:03;237402.00;0.79;410.28;37483.00;0.12;65.53;;;;;33.60;1.00;;;;;;2276457;61;1724;-90
2023/09/11 12:52:31;408674.00;1.36;704.72;34557.00;0.12;60.47;;;;;33.80;1.00;;;;;;2276530;61;1098;-89
2023/09/11 12:54:58;387214.00;1.29;667.83;65303.00;0.22;113.64;;;;;33.80;1.00;;;;;;2276348;61;2002;-88
2023/09/11 12:57:27;118488.00;0.39;205.47;0.00;0.00;0.62;;;;;33.40;1.00;;;;;;2276541;61;1144;-88
2023/09/11 12:59:54;50845.00;0.17;88.65;0.00;0.00;0.62;;;;;32.70;1.00;;;;;;2276539;61;1371;-87
2023/09/11 13:02:21;381995.00;1.27;658.85;162771.00;0.54;281.81;;;;;32.60;1.00;;;;;;2276474;61;1167;-88
2023/09/11 13:04:48;247120.00;0.82;427.00;10549.00;0.04;18.90;;;;;32.80;1.00;;;;;;2276466;61;1988;-89
2023/09/11 13:07:15;193136.00;0.64;334.11;0.00;0.00;0.62;;;;;32.90;1.00;;;;;;2276568;61;1126;-89
2023/09/11 13:09:42;1771.00;0.01;3.69;0.00;0.00;0.62;;;;;33.00;1.00;;;;;;2276418;61;1691;-88
2023/09/11 13:12:09;101104.00;0.34;175.48;29382.00;0.10;51.51;;;;;33.00;1.00;;;;;;2276342;61;1062;-90
2023/09/11 13:14:37;475400.00;1.58;819.48;115449.00;0.38;200.23;;;;;32.40;1.00;;;;;;2276405;61;1994;-87
2023/09/11 13:17:05;377752.00;1.26;651.56;96348.00;0.32;167.27;;;;;32.50;1.00;;;;;;2276270;61;1126;-89
2023/09/11 13:19:32;184660.00;0.62;319.51;0.00;0.00;0.62;;;;;32.90;1.00;;;;;;2276304;61;1367;-90
2023/09/11 13:21:59;33076.00;0.11;57.91;0.00;0.00;0.62;;;;;33.20;1.00;;;;;;2276409;61;2029;-89
2023/09/11 13:24:26;15946.00;0.05;28.25;0.00;0.00;0.62;;;;;33.40;1.00;;;;;;2276347;61;1133;-87
2023/09/11 13:26:53;100935.00;0.34;175.19;0.00;0.00;0.62;;;;;33.40;1.00;;;;;;2276370;61;1648;-87
2023/09/11 13:29:19;332351.00;1.11;573.53;45698.00;0.15;79.75;;;;;33.20;1.00;;;;;;2276330;61;2077;-88
2023/09/11 13:34:17;786358.00;2.62;1357.34;0.00;0.00;0.62;;;;;32.40;1.00;;;;;;1943715;56;3620;-90
2023/09/11 13:36:46;510686.00;1.70;880.22;0.00;0.00;0.62;;;;;32.20;1.00;;;;;;2284511;60;2005;-90
2023/09/11 13:39:14;52456.00;0.17;91.43;0.00;0.00;0.62;;;;;31.90;1.00;;;;;;2284305;39;3627;-89
2023/09/11 13:44:10;1099892.00;3.67;1910.23;0.00;0.00;0.62;;;;;32.50;1.00;;;;;;1952846;56;3617;-89
2023/09/11 13:46:37;139943.00;0.47;242.47;0.00;0.00;0.62;;;;;32.90;1.00;;;;;;2280381;60;1558;-89
2023/09/11 13:49:04;225815.00;0.75;390.35;22104.00;0.07;38.91;;;;;33.10;1.00;;;;;;2278881;60;1584;-87
2023/09/11 13:51:32;18820.00;0.06;33.23;0.00;0.00;0.62;;;;;32.80;1.00;;;;;;2276317;61;936;-89
2023/09/11 13:53:59;252087.00;0.84;435.54;0.00;0.00;0.62;;;;;33.00;1.00;;;;;;2276165;61;1446;-87
2023/09/11 14:01:25;508901.00;1.70;877.15;0.00;0.00;0.62;;;;;32.10;1.00;;;;;;2273978;61;1428;-89
2023/09/11 14:03:52;96702.00;0.32;167.88;0.00;0.00;0.62;;;;;31.80;1.00;;;;;;2272330;61;913;-89
2023/09/11 14:06:19;16668.00;0.06;29.50;0.00;0.00;0.62;;;;;31.60;1.00;;;;;;2309136;55;3812;-89
2023/09/11 14:08:47;367053.00;1.22;633.17;12282.00;0.04;21.90;;;;;31.80;1.00;;;;;;2283495;60;2358;-90
2023/09/11 14:13:43;657891.00;2.19;1134.29;0.00;0.00;0.62;;;;;32.30;1.00;;;;;;2277944;61;1280;-87
2023/09/11 14:16:10;174301.00;0.58;301.67;0.00;0.00;0.62;;;;;32.40;1.00;;;;;;2276143;61;2004;-90
2023/09/11 14:18:37;270405.00;0.90;467.04;43920.00;0.15;76.67;;;;;32.50;1.00;;;;;;2276211;61;1650;-90
2023/09/11 14:21:04;35292.00;0.12;61.74;0.00;0.00;0.62;;;;;32.90;1.00;;;;;;2299696;39;3591;-90
2023/09/11 14:23:31;170480.00;0.57;295.09;0.00;0.00;0.62;;;;;32.90;1.00;;;;;;2284509;60;1034;-88
2023/09/11 14:25:59;484339.00;1.61;834.87;97705.00;0.33;169.61;;;;;32.80;1.00;;;;;;2285014;60;1539;-88
2023/09/11 14:30:54;416827.00;1.39;718.73;0.00;0.00;0.62;;;;;32.60;1.00;;;;;;2278750;61;1378;-89
2023/09/11 14:33:21;99386.00;0.33;172.51;0.00;0.00;0.62;;;;;32.70;1.00;;;;;;2276875;61;1760;-89
2023/09/11 14:38:17;636799.00;2.12;1097.80;46889.00;0.16;81.81;;;;;33.00;1.00;;;;;;2282534;61;1416;-89
2023/09/11 14:40:44;317242.00;1.06;547.56;18936.00;0.06;33.43;;;;;32.70;1.00;;;;;;2280829;61;1647;-87
2023/09/11 14:48:11;545480.00;1.82;940.17;0.00;0.00;0.62;;;;;32.50;1.00;;;;;;2283530;61;1183;-87
2023/09/11 14:50:38;181704.00;0.61;314.42;0.00;0.00;0.62;;;;;32.50;1.00;;;;;;2280830;61;1660;-88
2023/09/11 14:53:05;147320.00;0.49;255.19;0.00;0.00;0.62;;;;;32.80;1.00;;;;;;2280895;61;955;-88
2023/09/11 14:58:00;487925.00;1.63;841.04;74299.00;0.25;129.19;;;;;32.90;1.00;;;;;;2286232;55;3637;-89
2023/09/11 15:00:27;110485.00;0.37;191.67;0.00;0.00;0.62;;;;;33.00;1.00;;;;;;2281161;61;1404;-88
2023/09/11 15:02:54;342169.00;1.14;590.40;0.00;0.00;0.62;;;;;33.20;1.00;;;;;;2280696;61;1525;-89
2023/09/11 15:05:22;332858.00;1.11;574.40;0.00;0.00;0.62;;;;;32.80;1.00;;;;;;2280737;61;1723;-88
2023/09/11 15:10:22;708859.00;2.36;1222.60;0.00;0.00;0.62;;;;;32.70;1.00;;;;;;2278277;61;1421;-89
2023/09/11 15:12:49;123840.00;0.41;214.71;0.00;0.00;0.62;;;;;32.70;1.00;;;;;;2276746;61;1079;-89
2023/09/11 15:17:47;791471.00;2.64;1366.25;0.00;0.00;0.62;;;;;32.70;1.00;;;;;;2283428;61;1307;-91
2023/09/11 15:20:14;31122.00;0.10;54.53;0.00;0.00;0.62;;;;;32.90;1.00;;;;;;2281170;61;1661;-88
2023/09/11 15:22:42;256875.00;0.86;443.77;117554.00;0.39;203.86;;;;;32.90;1.00;;;;;;2280771;61;1067;-89
2023/09/11 15:25:09;232340.00;0.77;401.57;0.00;0.00;0.62;;;;;32.90;1.00;;;;;;2280597;61;1025;-89
2023/09/11 15:30:07;897353.00;2.99;1551.47;0.00;0.00;0.62;;;;;33.00;1.00;;;;;;2278632;61;1406;-89
2023/09/11 15:32:34;188719.00;0.63;326.50;0.00;0.00;0.62;;;;;32.90;1.00;;;;;;2276710;61;1027;-89
2023/09/11 15:35:04;89906.00;0.30;156.15;0.00;0.00;0.62;;;;;32.90;1.00;;;;;;2276457;61;2002;-88
2023/09/11 15:37:32;64808.00;0.22;112.79;0.00;0.00;0.62;;;;;32.70;1.00;;;;;;2276758;61;932;-88
2023/09/11 15:40:01;218969.00;0.73;378.57;70962.00;0.24;123.42;;;;;32.80;1.00;;;;;;2276659;61;1510;-90
2023/09/11 15:42:27;217544.00;0.73;376.12;0.00;0.00;0.62;;;;;32.40;1.00;;;;;;2276664;61;1072;-89
2023/09/11 15:44:55;577227.00;1.92;994.91;110220.00;0.37;191.21;;;;;32.30;1.00;;;;;;2297830;39;3614;-89
2023/09/11 15:47:22;94047.00;0.31;163.30;0.00;0.00;0.62;;;;;32.30;1.00;;;;;;2284858;60;1735;-90
2023/09/11 15:49:49;232020.00;0.77;401.02;37107.00;0.12;64.88;;;;;32.30;1.00;;;;;;2281977;60;1347;-87
2023/09/11 15:52:15;276345.00;0.92;477.25;13553.00;0.05;24.10;;;;;32.50;1.00;;;;;;2280751;61;1567;-89
2023/09/11 15:54:43;178735.00;0.60;309.31;0.00;0.00;0.62;;;;;32.60;1.00;;;;;;2280836;61;1019;-88
2023/09/11 15:57:11;620820.00;2.07;1070.18;37919.00;0.13;66.29;;;;;32.60;1.00;;;;;;2280647;61;2005;-88
2023/09/11 15:59:38;323223.00;1.08;557.84;57604.00;0.19;100.33;;;;;32.20;1.00;;;;;;2280770;61;1280;-88
2023/09/11 16:02:05;267333.00;0.89;461.76;51035.00;0.17;88.98;;;;;32.20;1.00;;;;;;2280716;61;1721;-89
2023/09/11 16:04:32;104659.00;0.35;181.61;0.00;0.00;0.62;;;;;32.00;1.00;;;;;;2283257;55;3759;-89
2023/09/11 16:06:59;265685.00;0.89;458.92;0.00;0.00;0.62;;;;;32.40;1.00;;;;;;2280698;60;1094;-90
2023/09/11 16:09:26;177407.00;0.59;307.02;0.00;0.00;0.62;;;;;32.50;1.00;;;;;;2278327;60;1557;-90
2023/09/11 16:11:53;132235.00;0.44;229.18;0.00;0.00;0.62;;;;;32.40;1.00;;;;;;2276583;61;1314;-88
2023/09/11 16:14:21;108547.00;0.36;188.32;0.00;0.00;0.62;;;;;32.30;1.00;;;;;;2276617;61;1130;-90
2023/09/11 16:16:50;151297.00;0.50;262.04;0.00;0.00;0.62;;;;;31.90;1.00;;;;;;2276541;61;1935;-90
2023/09/11 16:19:21;76831.00;0.26;133.56;0.00;0.00;0.62;;;;;31.80;1.00;;;;;;2276673;61;1286;-89
2023/09/11 16:21:48;231918.00;0.77;400.85;0.00;0.00;0.62;;;;;31.90;1.00;;;;;;2276645;61;1702;-89
2023/09/11 16:24:15;102792.00;0.34;178.39;0.00;0.00;0.62;;;;;31.80;1.00;;;;;;2276621;61;1025;-89
2023/09/11 16:26:42;109596.00;0.37;190.13;0.00;0.00;0.62;;;;;31.70;1.00;;;;;;2276597;61;1703;-91
2023/09/11 16:29:09;161568.00;0.54;279.74;0.00;0.00;0.62;;;;;31.50;1.00;;;;;;2276661;61;1393;-91
2023/09/11 16:31:37;94299.00;0.31;163.73;0.00;0.00;0.62;;;;;31.70;1.00;;;;;;2276597;61;903;-90
2023/09/11 16:34:06;101321.00;0.34;175.85;0.00;0.00;0.62;;;;;31.70;1.00;;;;;;2276564;61;1007;-89
2023/09/11 16:36:33;278326.00;0.93;480.66;0.00;0.00;0.62;;;;;31.70;1.00;;;;;;2276434;61;2008;-89
2023/09/11 16:41:29;903383.00;3.01;1562.06;19089.00;0.06;33.69;;;;;30.80;1.00;;;;;;2334513;40;3499;-89
2023/09/11 16:43:56;535305.00;1.78;922.63;16141.00;0.05;28.59;;;;;30.60;1.00;;;;;;2296263;56;3770;-89
2023/09/11 16:51:27;1113701.00;3.71;1934.94;0.00;0.00;0.62;;;;;30.60;1.00;;;;;;2282225;61;1322;-88
2023/09/11 16:53:54;424114.00;1.41;731.26;24420.00;0.08;42.92;;;;;30.60;1.00;;;;;;2314176;56;3748;-92
2023/09/11 17:03:49;866799.00;2.89;1497.88;0.00;0.00;0.62;;;;;30.60;1.00;;;;;;2297802;40;3504;-89
2023/09/11 17:06:15;224089.00;0.75;387.38;0.00;0.00;0.62;;;;;30.60;1.00;;;;;;2326150;40;3665;-89
2023/09/11 17:08:44;142158.00;0.47;246.29;0.00;0.00;0.62;;;;;30.50;1.00;;;;;;2289418;55;3753;-91
2023/09/11 17:18:42;801324.00;2.67;1383.43;0.00;0.00;0.62;;;;;30.30;1.00;;;;;;2282916;61;1310;-91
2023/09/11 17:21:09;668627.00;2.23;1152.88;30975.00;0.10;54.27;;;;;30.20;1.00;;;;;;2281081;61;1708;-91
2023/09/11 17:31:05;500120.00;1.67;862.03;0.00;0.00;0.62;;;;;30.00;1.00;;;;;;2294454;55;3742;-90
2023/09/11 17:36:01;708106.00;2.36;1221.30;0.00;0.00;0.62;;;;;30.20;1.00;;;;;;2278093;61;1906;-90
2023/09/11 17:40:57;938172.00;3.13;1623.26;0.00;0.00;0.62;;;;;30.60;1.00;;;;;;2288519;55;3671;-91
2023/09/11 17:45:58;690102.00;2.30;1190.08;0.00;0.00;0.62;;;;;30.70;1.00;;;;;;2281759;61;1241;-89
2023/09/11 17:48:27;394932.00;1.32;681.09;0.00;0.00;0.62;;;;;30.40;1.00;;;;;;2280166;61;1308;-89
2023/09/11 17:50:54;197918.00;0.66;342.34;0.00;0.00;0.62;;;;;29.90;1.00;;;;;;2280262;61;1039;-90
2023/09/11 17:53:21;259656.00;0.87;448.56;32280.00;0.11;56.53;;;;;29.70;1.00;;;;;;2280251;61;1613;-90
2023/09/11 17:55:48;212962.00;0.71;368.23;28848.00;0.10;50.59;;;;;29.50;1.00;;;;;;2276632;61;2005;-89
2023/09/11 17:58:15;267476.00;0.89;462.00;0.00;0.00;0.62;;;;;29.60;1.00;;;;;;2279898;61;1606;-89
2023/09/11 18:00:42;271069.00;0.90;468.18;0.00;0.00;0.62;;;;;29.70;1.00;;;;;;2280103;61;934;-90
2023/09/11 18:05:40;850575.00;2.84;1469.47;70731.00;0.24;123.02;;;;;29.70;1.00;;;;;;2277946;61;1418;-89
2023/09/11 18:08:08;292672.00;0.98;505.32;22686.00;0.08;39.92;;;;;29.70;1.00;;;;;;2276294;61;1152;-91
2023/09/11 18:10:35;197348.00;0.66;341.36;0.00;0.00;0.62;;;;;29.70;1.00;;;;;;2276109;61;1715;-90
2023/09/11 18:13:02;75029.00;0.25;130.45;0.00;0.00;0.62;;;;;29.70;1.00;;;;;;2276170;61;919;-91
2023/09/11 18:15:29;245527.00;0.82;424.26;0.00;0.00;0.62;;;;;29.80;1.00;;;;;;2276128;61;1050;-89
2023/09/11 18:20:23;454836.00;1.52;784.10;0.00;0.00;0.62;;;;;29.80;1.00;;;;;;2281806;61;1876;-90
2023/09/11 18:22:52;167808.00;0.56;290.49;0.00;0.00;0.62;;;;;29.60;1.00;;;;;;2280258;61;1548;-91
2023/09/11 18:25:20;273946.00;0.91;473.13;14167.00;0.05;25.17;;;;;29.50;1.00;;;;;;2280243;61;1658;-90
2023/09/11 18:27:47;521450.00;1.74;898.76;70596.00;0.24;122.79;;;;;29.40;1.00;;;;;;2280175;61;1701;-89
2023/09/11 18:30:14;701847.00;2.34;1210.44;32089.00;0.11;56.20;;;;;29.20;1.00;;;;;;2280149;61;1393;-89
2023/09/11 18:32:41;148200.00;0.49;256.71;0.00;0.00;0.62;;;;;29.10;1.00;;;;;;2280283;61;1019;-90
2023/09/11 18:35:09;257608.00;0.86;445.04;0.00;0.00;0.62;;;;;29.00;1.00;;;;;;2280149;61;1555;-90
2023/09/11 18:37:36;263053.00;0.88;454.40;0.00;0.00;0.62;;;;;29.00;1.00;;;;;;2280237;61;1992;-89
2023/09/11 18:40:05;187062.00;0.62;323.65;0.00;0.00;0.62;;;;;29.00;1.00;;;;;;2280149;61;1620;-89
2023/09/11 18:42:32;155658.00;0.52;269.56;0.00;0.00;0.62;;;;;28.90;1.00;;;;;;2280182;61;1028;-90
2023/09/11 18:44:58;329168.00;1.10;568.06;21381.00;0.07;37.66;;;;;28.80;1.00;;;;;;2280183;61;1589;-89
2023/09/11 18:47:25;248359.00;0.83;429.13;0.00;0.00;0.62;;;;;28.80;1.00;;;;;;2280304;61;1558;-90
2023/09/11 18:49:52;247786.00;0.83;428.14;0.00;0.00;0.62;;;;;28.80;1.00;;;;;;2280252;61;1679;-90
2023/09/11 18:52:19;233089.00;0.78;402.86;0.00;0.00;0.62;;;;;28.50;1.00;;;;;;2280144;61;1657;-90
2023/09/11 18:54:47;270604.00;0.90;467.38;0.00;0.00;0.62;;;;;28.40;1.00;;;;;;2280264;61;1046;-89
2023/09/11 18:57:16;32639.00;0.11;57.15;0.00;0.00;0.62;;;;;28.30;1.00;;;;;;2280191;61;1996;-88
2023/09/11 18:59:43;213365.00;0.71;368.93;0.00;0.00;0.62;;;;;28.20;1.00;;;;;;2280244;61;1440;-89
2023/09/11 19:02:10;194380.00;0.65;336.25;0.00;0.00;0.62;;;;;28.20;1.00;;;;;;2280111;61;1669;-89
2023/09/11 19:04:37;227086.00;0.76;392.54;0.00;0.00;0.62;;;;;28.10;1.00;;;;;;2280146;61;1548;-89
2023/09/11 19:07:04;388048.00;1.29;669.26;78837.00;0.26;137.03;;;;;27.90;1.00;;;;;;2280293;61;1038;-89
2023/09/11 19:09:32;283300.00;0.94;489.21;0.00;0.00;0.62;;;;;27.90;1.00;;;;;;2280341;61;1284;-88
2023/09/11 19:11:59;237906.00;0.79;411.15;0.00;0.00;0.62;;;;;27.70;1.00;;;;;;2280984;61;915;-90
2023/09/11 19:14:27;212248.00;0.71;367.00;0.00;0.00;0.62;;;;;27.70;1.00;;;;;;2280886;61;1483;-90
2023/09/11 19:16:54;254899.00;0.85;440.38;0.00;0.00;0.62;;;;;27.70;1.00;;;;;;2280712;61;2006;-89
2023/09/11 19:19:21;149066.00;0.50;258.20;0.00;0.00;0.62;;;;;27.60;1.00;;;;;;2280678;61;1304;-88
2023/09/11 19:21:48;343922.00;1.15;593.41;8689.00;0.03;15.68;;;;;27.60;1.00;;;;;;2280814;61;1018;-88
2023/09/11 19:24:14;310200.00;1.03;535.45;16048.00;0.05;28.43;;;;;27.40;1.00;;;;;;2280787;61;1733;-87
2023/09/11 19:26:42;371099.00;1.24;640.13;12962.00;0.04;23.08;;;;;27.40;1.00;;;;;;2280764;61;1601;-88
2023/09/11 19:29:09;102578.00;0.34;178.02;0.00;0.00;0.62;;;;;27.40;1.00;;;;;;2280695;61;1423;-87
2023/09/11 19:31:38;354694.00;1.18;611.93;0.00;0.00;0.62;;;;;27.30;1.00;;;;;;2280488;61;1588;-87
2023/09/11 19:34:04;362649.00;1.21;625.60;0.00;0.00;0.62;;;;;27.10;1.00;;;;;;2280247;61;1072;-88
2023/09/11 19:36:31;472124.00;1.57;813.84;55740.00;0.19;97.11;;;;;27.10;1.00;;;;;;2280369;61;1919;-89